sensor_id;sensor_type;location;lat;lon;timestamp;temperature;humidity
20839;DHT22;10580;51.092;6.828;2023-07-08T00:00:20;21.80;99.90
20839;DHT22;10580;51.092;6.828;2023-07-08T00:02:46;21.80;99.90
20839;DHT22;10580;51.092;6.828;2023-07-08T00:05:14;21.80;99.90
20839;DHT22;10580;51.092;6.828;2023-07-08T00:07:41;21.80;99.90
20839;DHT22;10580;51.092;6.828;2023-07-08T00:10:11;21.80;99.90
20839;DHT22;10580;51.092;6.828;2023-07-08T00:12:37;21.90;99.90
20839;DHT22;10580;51.092;6.828;2023-07-08T00:15:03;21.90;99.90
20839;DHT22;10580;51.092;6.828;2023-07-08T00:17:29;21.90;99.90
20839;DHT22;10580;51.092;6.828;2023-07-08T00:19:54;21.90;99.90
20839;DHT22;10580;51.092;6.828;2023-07-08T00:22:20;21.90;99.90
20839;DHT22;10580;51.092;6.828;2023-07-08T00:24:45;21.80;99.90
20839;DHT22;10580;51.092;6.828;2023-07-08T00:27:12;21.80;99.90
20839;DHT22;10580;51.092;6.828;2023-07-08T00:29:40;21.80;99.90
20839;DHT22;10580;51.092;6.828;2023-07-08T00:32:14;21.70;99.90
20839;DHT22;10580;51.092;6.828;2023-07-08T00:34:40;21.70;99.90
20839;DHT22;10580;51.092;6.828;2023-07-08T00:37:10;21.60;99.90
20839;DHT22;10580;51.092;6.828;2023-07-08T00:39:36;21.60;99.90
20839;DHT22;10580;51.092;6.828;2023-07-08T00:42:10;21.50;99.90
20839;DHT22;10580;51.092;6.828;2023-07-08T00:44:37;21.40;99.90
20839;DHT22;10580;51.092;6.828;2023-07-08T00:47:07;21.30;99.90
20839;DHT22;10580;51.092;6.828;2023-07-08T00:52:29;21.10;99.90
20839;DHT22;10580;51.092;6.828;2023-07-08T00:55:01;21.00;99.90
20839;DHT22;10580;51.092;6.828;2023-07-08T00:57:33;20.90;99.90
20839;DHT22;10580;51.092;6.828;2023-07-08T01:00:10;20.80;99.90
20839;DHT22;10580;51.092;6.828;2023-07-08T01:02:46;20.80;99.90
20839;DHT22;10580;51.092;6.828;2023-07-08T01:05:23;20.60;99.90
20839;DHT22;10580;51.092;6.828;2023-07-08T01:07:58;20.60;99.90
20839;DHT22;10580;51.092;6.828;2023-07-08T01:10:30;20.40;99.90
20839;DHT22;10580;51.092;6.828;2023-07-08T01:13:00;20.30;99.90
20839;DHT22;10580;51.092;6.828;2023-07-08T01:15:32;20.20;99.90
20839;DHT22;10580;51.092;6.828;2023-07-08T01:18:00;20.10;99.90
20839;DHT22;10580;51.092;6.828;2023-07-08T01:20:26;20.10;99.90
20839;DHT22;10580;51.092;6.828;2023-07-08T01:22:52;20.10;99.90
20839;DHT22;10580;51.092;6.828;2023-07-08T01:25:17;20.00;99.90
20839;DHT22;10580;51.092;6.828;2023-07-08T01:27:46;20.00;99.90
20839;DHT22;10580;51.092;6.828;2023-07-08T01:30:14;20.00;99.90
20839;DHT22;10580;51.092;6.828;2023-07-08T01:32:45;20.00;99.90
20839;DHT22;10580;51.092;6.828;2023-07-08T01:35:12;20.00;99.90
20839;DHT22;10580;51.092;6.828;2023-07-08T01:37:51;20.00;99.90
20839;DHT22;10580;51.092;6.828;2023-07-08T01:40:33;20.00;99.90
20839;DHT22;10580;51.092;6.828;2023-07-08T01:43:00;20.00;99.90
20839;DHT22;10580;51.092;6.828;2023-07-08T01:45:30;20.00;99.90
20839;DHT22;10580;51.092;6.828;2023-07-08T01:48:01;19.90;99.90
20839;DHT22;10580;51.092;6.828;2023-07-08T01:50:29;19.90;99.90
20839;DHT22;10580;51.092;6.828;2023-07-08T01:52:59;19.90;99.90
20839;DHT22;10580;51.092;6.828;2023-07-08T01:55:26;19.90;99.90
20839;DHT22;10580;51.092;6.828;2023-07-08T01:57:54;19.90;99.90
20839;DHT22;10580;51.092;6.828;2023-07-08T02:00:21;19.90;99.90
20839;DHT22;10580;51.092;6.828;2023-07-08T02:02:48;19.90;99.90
20839;DHT22;10580;51.092;6.828;2023-07-08T02:05:14;19.90;99.90
20839;DHT22;10580;51.092;6.828;2023-07-08T02:07:39;19.90;99.90
20839;DHT22;10580;51.092;6.828;2023-07-08T02:10:06;19.90;99.90
20839;DHT22;10580;51.092;6.828;2023-07-08T02:12:31;19.90;99.90
20839;DHT22;10580;51.092;6.828;2023-07-08T02:15:00;19.90;99.90
20839;DHT22;10580;51.092;6.828;2023-07-08T02:17:26;19.90;99.90
20839;DHT22;10580;51.092;6.828;2023-07-08T02:19:54;19.80;99.90
20839;DHT22;10580;51.092;6.828;2023-07-08T02:22:20;19.80;99.90
20839;DHT22;10580;51.092;6.828;2023-07-08T02:24:46;19.80;99.90
20839;DHT22;10580;51.092;6.828;2023-07-08T02:27:11;19.80;99.90
20839;DHT22;10580;51.092;6.828;2023-07-08T02:29:37;19.80;99.90
20839;DHT22;10580;51.092;6.828;2023-07-08T02:32:04;19.80;99.90
20839;DHT22;10580;51.092;6.828;2023-07-08T02:34:29;19.80;99.90
20839;DHT22;10580;51.092;6.828;2023-07-08T02:36:55;19.70;99.90
20839;DHT22;10580;51.092;6.828;2023-07-08T02:39:22;19.70;99.90
20839;DHT22;10580;51.092;6.828;2023-07-08T02:41:47;19.70;99.90
20839;DHT22;10580;51.092;6.828;2023-07-08T02:44:13;19.70;99.90
20839;DHT22;10580;51.092;6.828;2023-07-08T02:46:38;19.70;99.90
20839;DHT22;10580;51.092;6.828;2023-07-08T02:49:04;19.70;99.90
20839;DHT22;10580;51.092;6.828;2023-07-08T02:51:31;19.70;99.90
20839;DHT22;10580;51.092;6.828;2023-07-08T02:53:57;19.70;99.90
20839;DHT22;10580;51.092;6.828;2023-07-08T02:56:23;19.60;99.90
20839;DHT22;10580;51.092;6.828;2023-07-08T02:58:49;19.50;1.00
20839;DHT22;10580;51.092;6.828;2023-07-08T03:01:15;19.40;1.00
20839;DHT22;10580;51.092;6.828;2023-07-08T03:03:47;19.40;99.90
20839;DHT22;10580;51.092;6.828;2023-07-08T03:06:13;19.40;99.90
20839;DHT22;10580;51.092;6.828;2023-07-08T03:08:39;19.40;99.90
20839;DHT22;10580;51.092;6.828;2023-07-08T03:11:06;19.50;99.90
20839;DHT22;10580;51.092;6.828;2023-07-08T03:13:33;19.50;99.90
20839;DHT22;10580;51.092;6.828;2023-07-08T03:16:00;19.50;99.90
20839;DHT22;10580;51.092;6.828;2023-07-08T03:18:26;19.40;99.90
20839;DHT22;10580;51.092;6.828;2023-07-08T03:20:52;19.40;99.90
20839;DHT22;10580;51.092;6.828;2023-07-08T03:23:18;19.40;99.90
20839;DHT22;10580;51.092;6.828;2023-07-08T03:25:44;19.30;99.90
20839;DHT22;10580;51.092;6.828;2023-07-08T03:28:10;19.30;99.90
20839;DHT22;10580;51.092;6.828;2023-07-08T03:30:41;19.30;99.90
20839;DHT22;10580;51.092;6.828;2023-07-08T03:33:07;19.30;99.90
20839;DHT22;10580;51.092;6.828;2023-07-08T03:35:32;19.20;99.90
20839;DHT22;10580;51.092;6.828;2023-07-08T03:37:58;19.20;99.90
20839;DHT22;10580;51.092;6.828;2023-07-08T03:40:24;19.20;99.90
20839;DHT22;10580;51.092;6.828;2023-07-08T03:42:49;19.20;1.00
20839;DHT22;10580;51.092;6.828;2023-07-08T03:45:15;19.30;99.90
20839;DHT22;10580;51.092;6.828;2023-07-08T03:47:40;19.30;99.90
20839;DHT22;10580;51.092;6.828;2023-07-08T03:50:09;19.40;99.90
20839;DHT22;10580;51.092;6.828;2023-07-08T03:52:36;19.60;99.90
20839;DHT22;10580;51.092;6.828;2023-07-08T03:55:02;19.70;99.90
20839;DHT22;10580;51.092;6.828;2023-07-08T03:57:29;19.70;99.90
20839;DHT22;10580;51.092;6.828;2023-07-08T03:59:55;19.80;99.90
20839;DHT22;10580;51.092;6.828;2023-07-08T04:02:20;19.90;99.90
20839;DHT22;10580;51.092;6.828;2023-07-08T04:04:46;20.00;99.90
20839;DHT22;10580;51.092;6.828;2023-07-08T04:07:12;20.00;99.90
20839;DHT22;10580;51.092;6.828;2023-07-08T04:09:37;20.00;99.90
20839;DHT22;10580;51.092;6.828;2023-07-08T04:12:03;20.10;99.90
20839;DHT22;10580;51.092;6.828;2023-07-08T04:14:30;20.10;99.90
20839;DHT22;10580;51.092;6.828;2023-07-08T04:16:57;20.20;99.90
20839;DHT22;10580;51.092;6.828;2023-07-08T04:19:24;20.20;99.90
20839;DHT22;10580;51.092;6.828;2023-07-08T04:21:50;20.20;99.90
20839;DHT22;10580;51.092;6.828;2023-07-08T04:24:17;20.20;99.90
20839;DHT22;10580;51.092;6.828;2023-07-08T04:26:43;20.20;99.90
20839;DHT22;10580;51.092;6.828;2023-07-08T04:29:17;20.30;99.90
20839;DHT22;10580;51.092;6.828;2023-07-08T04:31:43;20.20;99.90
20839;DHT22;10580;51.092;6.828;2023-07-08T04:34:09;20.20;99.90
20839;DHT22;10580;51.092;6.828;2023-07-08T04:36:35;20.20;99.90
20839;DHT22;10580;51.092;6.828;2023-07-08T04:39:03;20.20;99.90
20839;DHT22;10580;51.092;6.828;2023-07-08T04:41:28;20.10;99.90
20839;DHT22;10580;51.092;6.828;2023-07-08T04:43:54;20.10;99.90
20839;DHT22;10580;51.092;6.828;2023-07-08T04:49:51;20.00;99.90
20839;DHT22;10580;51.092;6.828;2023-07-08T04:52:31;20.00;99.90
20839;DHT22;10580;51.092;6.828;2023-07-08T04:58:50;20.00;99.90
20839;DHT22;10580;51.092;6.828;2023-07-08T05:01:22;20.00;99.90
20839;DHT22;10580;51.092;6.828;2023-07-08T05:03:48;20.10;99.90
20839;DHT22;10580;51.092;6.828;2023-07-08T05:06:14;20.10;99.90
20839;DHT22;10580;51.092;6.828;2023-07-08T05:12:07;20.50;99.90
20839;DHT22;10580;51.092;6.828;2023-07-08T05:14:33;20.90;99.90
20839;DHT22;10580;51.092;6.828;2023-07-08T05:17:10;21.30;99.90
20839;DHT22;10580;51.092;6.828;2023-07-08T05:19:44;21.70;99.90
20839;DHT22;10580;51.092;6.828;2023-07-08T05:22:19;22.00;99.90
20839;DHT22;10580;51.092;6.828;2023-07-08T05:24:58;22.30;99.90
20839;DHT22;10580;51.092;6.828;2023-07-08T05:27:33;22.40;99.90
20839;DHT22;10580;51.092;6.828;2023-07-08T05:30:00;22.50;99.90
20839;DHT22;10580;51.092;6.828;2023-07-08T05:32:25;22.50;99.90
20839;DHT22;10580;51.092;6.828;2023-07-08T05:34:52;22.50;99.90
20839;DHT22;10580;51.092;6.828;2023-07-08T05:37:18;22.50;99.90
20839;DHT22;10580;51.092;6.828;2023-07-08T05:39:46;22.40;99.90
20839;DHT22;10580;51.092;6.828;2023-07-08T05:42:12;22.40;99.90
20839;DHT22;10580;51.092;6.828;2023-07-08T05:48:00;22.70;99.90
20839;DHT22;10580;51.092;6.828;2023-07-08T05:50:33;23.00;99.90
20839;DHT22;10580;51.092;6.828;2023-07-08T05:53:25;23.60;99.90
20839;DHT22;10580;51.092;6.828;2023-07-08T05:55:51;24.40;99.90
20839;DHT22;10580;51.092;6.828;2023-07-08T05:58:19;25.00;99.90
20839;DHT22;10580;51.092;6.828;2023-07-08T06:01:03;25.60;99.90
20839;DHT22;10580;51.092;6.828;2023-07-08T06:03:29;26.10;99.90
20839;DHT22;10580;51.092;6.828;2023-07-08T06:05:56;26.00;99.90
20839;DHT22;10580;51.092;6.828;2023-07-08T06:08:22;25.60;99.90
20839;DHT22;10580;51.092;6.828;2023-07-08T06:10:49;25.20;99.90
20839;DHT22;10580;51.092;6.828;2023-07-08T06:13:21;25.30;99.90
20839;DHT22;10580;51.092;6.828;2023-07-08T06:15:47;25.80;99.90
20839;DHT22;10580;51.092;6.828;2023-07-08T06:18:12;26.40;99.90
20839;DHT22;10580;51.092;6.828;2023-07-08T06:21:08;27.00;99.90
20839;DHT22;10580;51.092;6.828;2023-07-08T06:23:33;27.50;99.90
20839;DHT22;10580;51.092;6.828;2023-07-08T06:26:29;27.80;99.90
20839;DHT22;10580;51.092;6.828;2023-07-08T06:29:06;28.10;99.90
20839;DHT22;10580;51.092;6.828;2023-07-08T06:31:32;28.30;99.90
20839;DHT22;10580;51.092;6.828;2023-07-08T06:34:09;28.50;99.90
20839;DHT22;10580;51.092;6.828;2023-07-08T06:36:35;28.50;99.90
20839;DHT22;10580;51.092;6.828;2023-07-08T06:39:01;28.70;99.90
20839;DHT22;10580;51.092;6.828;2023-07-08T06:41:26;28.90;99.90
20839;DHT22;10580;51.092;6.828;2023-07-08T06:43:52;29.00;99.90
20839;DHT22;10580;51.092;6.828;2023-07-08T06:46:19;29.20;99.90
20839;DHT22;10580;51.092;6.828;2023-07-08T06:48:44;29.40;99.90
20839;DHT22;10580;51.092;6.828;2023-07-08T06:51:10;29.40;99.90
20839;DHT22;10580;51.092;6.828;2023-07-08T06:53:36;29.60;99.90
20839;DHT22;10580;51.092;6.828;2023-07-08T06:56:01;29.60;99.90
20839;DHT22;10580;51.092;6.828;2023-07-08T06:58:27;29.50;99.90
20839;DHT22;10580;51.092;6.828;2023-07-08T07:00:53;29.40;99.90
20839;DHT22;10580;51.092;6.828;2023-07-08T07:03:40;29.40;99.90
20839;DHT22;10580;51.092;6.828;2023-07-08T07:06:46;29.30;99.90
20839;DHT22;10580;51.092;6.828;2023-07-08T07:09:11;29.10;99.90
20839;DHT22;10580;51.092;6.828;2023-07-08T07:11:49;29.00;99.90
20839;DHT22;10580;51.092;6.828;2023-07-08T07:14:29;29.00;99.90
20839;DHT22;10580;51.092;6.828;2023-07-08T07:17:10;29.10;99.90
20839;DHT22;10580;51.092;6.828;2023-07-08T07:19:35;29.40;99.90
20839;DHT22;10580;51.092;6.828;2023-07-08T07:22:14;29.60;99.90
20839;DHT22;10580;51.092;6.828;2023-07-08T07:24:39;29.60;99.90
20839;DHT22;10580;51.092;6.828;2023-07-08T07:27:14;29.70;99.90
20839;DHT22;10580;51.092;6.828;2023-07-08T07:29:57;29.20;99.90
20839;DHT22;10580;51.092;6.828;2023-07-08T07:32:26;28.70;99.90
20839;DHT22;10580;51.092;6.828;2023-07-08T07:34:52;28.40;99.90
20839;DHT22;10580;51.092;6.828;2023-07-08T07:44:13;28.90;99.90
20839;DHT22;10580;51.092;6.828;2023-07-08T07:49:57;29.70;99.90
20839;DHT22;10580;51.092;6.828;2023-07-08T07:55:41;30.10;99.90
20839;DHT22;10580;51.092;6.828;2023-07-08T07:58:06;30.50;99.90
20839;DHT22;10580;51.092;6.828;2023-07-08T08:00:33;30.70;99.90
20839;DHT22;10580;51.092;6.828;2023-07-08T08:02:59;30.60;99.90
20839;DHT22;10580;51.092;6.828;2023-07-08T08:05:24;30.50;99.90
20839;DHT22;10580;51.092;6.828;2023-07-08T08:07:50;30.70;99.90
20839;DHT22;10580;51.092;6.828;2023-07-08T08:10:15;30.60;99.90
20839;DHT22;10580;51.092;6.828;2023-07-08T08:12:41;30.90;99.90
20839;DHT22;10580;51.092;6.828;2023-07-08T08:15:07;30.70;99.90
20839;DHT22;10580;51.092;6.828;2023-07-08T08:24:26;29.70;99.90
20839;DHT22;10580;51.092;6.828;2023-07-08T08:26:52;29.80;99.90
20839;DHT22;10580;51.092;6.828;2023-07-08T08:29:17;30.00;99.90
20839;DHT22;10580;51.092;6.828;2023-07-08T08:31:43;29.80;99.90
20839;DHT22;10580;51.092;6.828;2023-07-08T08:34:08;30.00;99.90
20839;DHT22;10580;51.092;6.828;2023-07-08T08:36:34;30.50;99.90
20839;DHT22;10580;51.092;6.828;2023-07-08T08:38:59;31.00;99.90
20839;DHT22;10580;51.092;6.828;2023-07-08T08:41:33;31.50;99.90
20839;DHT22;10580;51.092;6.828;2023-07-08T08:44:01;31.90;99.90
20839;DHT22;10580;51.092;6.828;2023-07-08T08:46:45;32.20;99.90
20839;DHT22;10580;51.092;6.828;2023-07-08T08:49:32;32.20;99.90
20839;DHT22;10580;51.092;6.828;2023-07-08T08:52:07;32.10;99.90
20839;DHT22;10580;51.092;6.828;2023-07-08T08:54:33;32.10;99.90
20839;DHT22;10580;51.092;6.828;2023-07-08T08:57:33;32.20;99.90
20839;DHT22;10580;51.092;6.828;2023-07-08T09:00:02;32.30;99.90
20839;DHT22;10580;51.092;6.828;2023-07-08T09:05:22;32.40;99.90
20839;DHT22;10580;51.092;6.828;2023-07-08T09:08:05;32.60;99.90
20839;DHT22;10580;51.092;6.828;2023-07-08T09:11:00;32.70;99.90
20839;DHT22;10580;51.092;6.828;2023-07-08T09:13:33;32.80;99.90
20839;DHT22;10580;51.092;6.828;2023-07-08T09:18:38;33.10;99.90
20839;DHT22;10580;51.092;6.828;2023-07-08T09:21:18;32.60;99.90
20839;DHT22;10580;51.092;6.828;2023-07-08T09:24:13;32.70;99.90
20839;DHT22;10580;51.092;6.828;2023-07-08T09:26:53;33.10;99.90
20839;DHT22;10580;51.092;6.828;2023-07-08T09:29:22;33.00;99.90
20839;DHT22;10580;51.092;6.828;2023-07-08T09:31:48;33.00;99.90
20839;DHT22;10580;51.092;6.828;2023-07-08T09:36:45;33.50;99.90
20839;DHT22;10580;51.092;6.828;2023-07-08T09:39:19;33.40;99.90
20839;DHT22;10580;51.092;6.828;2023-07-08T09:41:48;33.60;99.90
20839;DHT22;10580;51.092;6.828;2023-07-08T09:44:38;33.80;99.90
20839;DHT22;10580;51.092;6.828;2023-07-08T09:47:21;33.60;99.90
20839;DHT22;10580;51.092;6.828;2023-07-08T09:52:57;33.90;99.90
20839;DHT22;10580;51.092;6.828;2023-07-08T09:55:26;34.00;99.90
20839;DHT22;10580;51.092;6.828;2023-07-08T10:04:01;34.20;99.90
20839;DHT22;10580;51.092;6.828;2023-07-08T10:06:28;34.40;99.90
20839;DHT22;10580;51.092;6.828;2023-07-08T10:09:00;34.40;99.90
20839;DHT22;10580;51.092;6.828;2023-07-08T10:11:52;34.50;99.90
20839;DHT22;10580;51.092;6.828;2023-07-08T10:14:39;34.60;99.90
20839;DHT22;10580;51.092;6.828;2023-07-08T10:17:11;34.70;99.90
20839;DHT22;10580;51.092;6.828;2023-07-08T10:19:38;34.90;99.90
20839;DHT22;10580;51.092;6.828;2023-07-08T10:22:21;35.10;99.90
20839;DHT22;10580;51.092;6.828;2023-07-08T10:25:23;35.20;99.90
20839;DHT22;10580;51.092;6.828;2023-07-08T10:28:00;35.50;99.90
20839;DHT22;10580;51.092;6.828;2023-07-08T10:30:32;35.60;99.90
20839;DHT22;10580;51.092;6.828;2023-07-08T10:42:00;36.00;99.90
20839;DHT22;10580;51.092;6.828;2023-07-08T10:49:42;36.20;99.90
20839;DHT22;10580;51.092;6.828;2023-07-08T10:52:28;36.00;99.90
20839;DHT22;10580;51.092;6.828;2023-07-08T11:00:42;36.20;99.90
20839;DHT22;10580;51.092;6.828;2023-07-08T11:06:01;36.30;99.90
20839;DHT22;10580;51.092;6.828;2023-07-08T11:08:38;36.30;99.90
20839;DHT22;10580;51.092;6.828;2023-07-08T11:17:27;36.40;99.90
20839;DHT22;10580;51.092;6.828;2023-07-08T11:23:42;36.20;99.90
20839;DHT22;10580;51.092;6.828;2023-07-08T11:29:40;36.60;99.90
20839;DHT22;10580;51.092;6.828;2023-07-08T11:32:13;37.00;99.90
20839;DHT22;10580;51.092;6.828;2023-07-08T11:34:44;37.10;99.90
20839;DHT22;10580;51.092;6.828;2023-07-08T11:37:15;37.10;99.90
20839;DHT22;10580;51.092;6.828;2023-07-08T11:46:35;37.00;99.90
20839;DHT22;10580;51.092;6.828;2023-07-08T11:49:09;37.40;99.90
20839;DHT22;10580;51.092;6.828;2023-07-08T11:51:44;37.20;99.90
20839;DHT22;10580;51.092;6.828;2023-07-08T11:54:37;37.20;99.90
20839;DHT22;10580;51.092;6.828;2023-07-08T11:57:38;37.00;99.90
20839;DHT22;10580;51.092;6.828;2023-07-08T12:02:57;37.60;99.90
20839;DHT22;10580;51.092;6.828;2023-07-08T12:05:30;38.00;99.90
20839;DHT22;10580;51.092;6.828;2023-07-08T12:11:16;37.90;99.90
20839;DHT22;10580;51.092;6.828;2023-07-08T12:14:02;37.40;99.90
20839;DHT22;10580;51.092;6.828;2023-07-08T12:16:30;37.30;99.90
20839;DHT22;10580;51.092;6.828;2023-07-08T12:19:00;37.30;99.90
20839;DHT22;10580;51.092;6.828;2023-07-08T12:21:29;37.50;99.90
20839;DHT22;10580;51.092;6.828;2023-07-08T12:24:06;37.60;99.90
20839;DHT22;10580;51.092;6.828;2023-07-08T12:26:35;37.70;99.90
20839;DHT22;10580;51.092;6.828;2023-07-08T12:29:01;37.90;99.90
20839;DHT22;10580;51.092;6.828;2023-07-08T12:31:36;37.80;99.90
20839;DHT22;10580;51.092;6.828;2023-07-08T12:34:02;37.60;99.90
20839;DHT22;10580;51.092;6.828;2023-07-08T12:36:29;37.40;99.90
20839;DHT22;10580;51.092;6.828;2023-07-08T12:38:57;37.60;99.90
20839;DHT22;10580;51.092;6.828;2023-07-08T12:41:26;37.60;99.90
20839;DHT22;10580;51.092;6.828;2023-07-08T12:43:53;37.70;99.90
20839;DHT22;10580;51.092;6.828;2023-07-08T12:46:20;38.00;99.90
20839;DHT22;10580;51.092;6.828;2023-07-08T12:48:49;38.30;99.90
20839;DHT22;10580;51.092;6.828;2023-07-08T12:51:46;38.10;99.90
20839;DHT22;10580;51.092;6.828;2023-07-08T12:54:33;37.90;99.90
20839;DHT22;10580;51.092;6.828;2023-07-08T12:57:08;37.90;99.90
20839;DHT22;10580;51.092;6.828;2023-07-08T12:59:44;37.80;99.90
20839;DHT22;10580;51.092;6.828;2023-07-08T13:02:20;38.00;99.90
20839;DHT22;10580;51.092;6.828;2023-07-08T13:04:53;37.80;99.90
20839;DHT22;10580;51.092;6.828;2023-07-08T13:07:36;37.80;99.90
20839;DHT22;10580;51.092;6.828;2023-07-08T13:10:13;37.80;99.90
20839;DHT22;10580;51.092;6.828;2023-07-08T13:12:41;37.50;99.90
20839;DHT22;10580;51.092;6.828;2023-07-08T13:15:27;37.10;99.90
20839;DHT22;10580;51.092;6.828;2023-07-08T13:18:01;37.00;99.90
20839;DHT22;10580;51.092;6.828;2023-07-08T13:20:32;37.00;99.90
20839;DHT22;10580;51.092;6.828;2023-07-08T13:23:01;36.90;99.90
20839;DHT22;10580;51.092;6.828;2023-07-08T13:25:33;37.00;99.90
20839;DHT22;10580;51.092;6.828;2023-07-08T13:28:02;36.90;99.90
20839;DHT22;10580;51.092;6.828;2023-07-08T13:30:39;36.80;99.90
20839;DHT22;10580;51.092;6.828;2023-07-08T13:33:17;36.60;99.90
20839;DHT22;10580;51.092;6.828;2023-07-08T13:35:43;36.70;99.90
20839;DHT22;10580;51.092;6.828;2023-07-08T13:38:20;36.90;99.90
20839;DHT22;10580;51.092;6.828;2023-07-08T13:40:58;37.10;99.90
20839;DHT22;10580;51.092;6.828;2023-07-08T13:43:28;37.10;99.90
20839;DHT22;10580;51.092;6.828;2023-07-08T13:45:54;36.80;99.90
20839;DHT22;10580;51.092;6.828;2023-07-08T13:48:38;36.60;99.90
20839;DHT22;10580;51.092;6.828;2023-07-08T13:51:08;36.60;99.90
20839;DHT22;10580;51.092;6.828;2023-07-08T13:53:50;36.50;99.90
20839;DHT22;10580;51.092;6.828;2023-07-08T13:56:21;36.40;99.90
20839;DHT22;10580;51.092;6.828;2023-07-08T13:58:52;36.30;99.90
20839;DHT22;10580;51.092;6.828;2023-07-08T14:01:23;36.40;99.90
20839;DHT22;10580;51.092;6.828;2023-07-08T14:03:56;36.50;99.90
20839;DHT22;10580;51.092;6.828;2023-07-08T14:06:30;36.40;99.90
20839;DHT22;10580;51.092;6.828;2023-07-08T14:09:11;36.20;99.90
20839;DHT22;10580;51.092;6.828;2023-07-08T14:11:37;36.20;99.90
20839;DHT22;10580;51.092;6.828;2023-07-08T14:14:03;36.20;99.90
20839;DHT22;10580;51.092;6.828;2023-07-08T14:16:41;36.20;99.90
20839;DHT22;10580;51.092;6.828;2023-07-08T14:19:57;36.30;99.90
20839;DHT22;10580;51.092;6.828;2023-07-08T14:22:35;36.10;99.90
20839;DHT22;10580;51.092;6.828;2023-07-08T14:25:06;35.90;99.90
20839;DHT22;10580;51.092;6.828;2023-07-08T14:27:42;35.60;99.90
20839;DHT22;10580;51.092;6.828;2023-07-08T14:30:13;35.50;99.90
20839;DHT22;10580;51.092;6.828;2023-07-08T14:32:46;35.50;99.90
20839;DHT22;10580;51.092;6.828;2023-07-08T14:35:38;35.50;99.90
20839;DHT22;10580;51.092;6.828;2023-07-08T14:38:19;35.30;99.90
20839;DHT22;10580;51.092;6.828;2023-07-08T14:40:51;35.30;99.90
20839;DHT22;10580;51.092;6.828;2023-07-08T14:43:37;35.40;99.90
20839;DHT22;10580;51.092;6.828;2023-07-08T14:46:09;35.50;99.90
20839;DHT22;10580;51.092;6.828;2023-07-08T14:48:47;35.50;99.90
20839;DHT22;10580;51.092;6.828;2023-07-08T14:51:18;35.40;99.90
20839;DHT22;10580;51.092;6.828;2023-07-08T14:58:04;35.10;99.90
20839;DHT22;10580;51.092;6.828;2023-07-08T15:00:49;35.00;99.90
20839;DHT22;10580;51.092;6.828;2023-07-08T15:03:14;35.00;99.90
20839;DHT22;10580;51.092;6.828;2023-07-08T15:08:38;34.70;99.90
20839;DHT22;10580;51.092;6.828;2023-07-08T15:11:16;34.60;99.90
20839;DHT22;10580;51.092;6.828;2023-07-08T15:17:27;34.40;99.90
20839;DHT22;10580;51.092;6.828;2023-07-08T15:19:53;34.50;99.90
20839;DHT22;10580;51.092;6.828;2023-07-08T15:22:19;34.40;99.90
20839;DHT22;10580;51.092;6.828;2023-07-08T15:24:57;34.50;99.90
20839;DHT22;10580;51.092;6.828;2023-07-08T15:27:26;34.70;99.90
20839;DHT22;10580;51.092;6.828;2023-07-08T15:33:26;35.00;99.90
20839;DHT22;10580;51.092;6.828;2023-07-08T15:36:30;35.20;99.90
20839;DHT22;10580;51.092;6.828;2023-07-08T15:39:07;35.50;99.90
20839;DHT22;10580;51.092;6.828;2023-07-08T15:41:32;35.60;99.90
20839;DHT22;10580;51.092;6.828;2023-07-08T15:44:02;35.70;99.90
20839;DHT22;10580;51.092;6.828;2023-07-08T15:46:35;35.80;99.90
20839;DHT22;10580;51.092;6.828;2023-07-08T15:49:04;35.90;99.90
20839;DHT22;10580;51.092;6.828;2023-07-08T16:01:01;35.00;99.90
20839;DHT22;10580;51.092;6.828;2023-07-08T16:03:30;34.60;99.90
20839;DHT22;10580;51.092;6.828;2023-07-08T16:05:57;34.50;99.90
20839;DHT22;10580;51.092;6.828;2023-07-08T16:08:24;34.20;99.90
20839;DHT22;10580;51.092;6.828;2023-07-08T16:10:54;34.10;99.90
20839;DHT22;10580;51.092;6.828;2023-07-08T16:13:23;34.10;99.90
20839;DHT22;10580;51.092;6.828;2023-07-08T16:15:56;33.90;99.90
20839;DHT22;10580;51.092;6.828;2023-07-08T16:18:22;33.90;99.90
20839;DHT22;10580;51.092;6.828;2023-07-08T16:20:48;33.80;99.90
20839;DHT22;10580;51.092;6.828;2023-07-08T16:23:16;33.70;99.90
20839;DHT22;10580;51.092;6.828;2023-07-08T16:25:48;33.70;99.90
20839;DHT22;10580;51.092;6.828;2023-07-08T16:31:17;33.50;99.90
20839;DHT22;10580;51.092;6.828;2023-07-08T16:33:43;33.50;99.90
20839;DHT22;10580;51.092;6.828;2023-07-08T16:36:18;33.40;99.90
20839;DHT22;10580;51.092;6.828;2023-07-08T16:38:47;33.40;99.90
20839;DHT22;10580;51.092;6.828;2023-07-08T16:41:28;33.40;99.90
20839;DHT22;10580;51.092;6.828;2023-07-08T16:43:54;33.30;99.90
20839;DHT22;10580;51.092;6.828;2023-07-08T16:46:22;33.30;99.90
20839;DHT22;10580;51.092;6.828;2023-07-08T16:48:48;33.30;99.90
20839;DHT22;10580;51.092;6.828;2023-07-08T16:51:20;33.20;99.90
20839;DHT22;10580;51.092;6.828;2023-07-08T16:53:46;33.20;99.90
20839;DHT22;10580;51.092;6.828;2023-07-08T16:56:14;33.20;99.90
20839;DHT22;10580;51.092;6.828;2023-07-08T16:58:40;33.10;99.90
20839;DHT22;10580;51.092;6.828;2023-07-08T17:01:17;33.10;99.90
20839;DHT22;10580;51.092;6.828;2023-07-08T17:03:43;33.00;99.90
20839;DHT22;10580;51.092;6.828;2023-07-08T17:06:09;32.90;99.90
20839;DHT22;10580;51.092;6.828;2023-07-08T17:08:35;32.90;99.90
20839;DHT22;10580;51.092;6.828;2023-07-08T17:11:00;32.90;99.90
20839;DHT22;10580;51.092;6.828;2023-07-08T17:13:26;32.90;99.90
20839;DHT22;10580;51.092;6.828;2023-07-08T17:15:52;33.00;99.90
20839;DHT22;10580;51.092;6.828;2023-07-08T17:18:21;33.00;99.90
20839;DHT22;10580;51.092;6.828;2023-07-08T17:20:49;33.10;99.90
20839;DHT22;10580;51.092;6.828;2023-07-08T17:23:17;33.10;99.90
20839;DHT22;10580;51.092;6.828;2023-07-08T17:25:43;33.00;99.90
20839;DHT22;10580;51.092;6.828;2023-07-08T17:28:10;33.00;99.90
20839;DHT22;10580;51.092;6.828;2023-07-08T17:30:38;32.80;99.90
20839;DHT22;10580;51.092;6.828;2023-07-08T17:33:03;32.80;99.90
20839;DHT22;10580;51.092;6.828;2023-07-08T17:35:29;32.70;99.90
20839;DHT22;10580;51.092;6.828;2023-07-08T17:37:55;32.70;99.90
20839;DHT22;10580;51.092;6.828;2023-07-08T17:40:24;32.70;99.90
20839;DHT22;10580;51.092;6.828;2023-07-08T17:42:51;32.60;99.90
20839;DHT22;10580;51.092;6.828;2023-07-08T17:45:20;32.50;99.90
20839;DHT22;10580;51.092;6.828;2023-07-08T17:47:47;32.50;99.90
20839;DHT22;10580;51.092;6.828;2023-07-08T17:50:19;32.30;99.90
20839;DHT22;10580;51.092;6.828;2023-07-08T17:52:46;32.30;99.90
20839;DHT22;10580;51.092;6.828;2023-07-08T17:55:12;32.30;99.90
20839;DHT22;10580;51.092;6.828;2023-07-08T17:57:38;32.10;99.90
20839;DHT22;10580;51.092;6.828;2023-07-08T18:00:16;31.90;99.90
20839;DHT22;10580;51.092;6.828;2023-07-08T18:02:43;31.70;99.90